Time;durP1;ratioP1;P1;durP2;ratioP2;P2;SDS_P1;SDS_P2;PMS_P1;PMS_P2;Temp;Humidity;BMP_temperature;BMP_pressure;BME280_temperature;BME280_humidity;BME280_pressure;Samples;Min_cycle;Max_cycle;Signal;HPM_P1;HPM_P2
2021/12/29 00:02:21;;;;;;;116.35;42.65;;;;;;;0.18;100.00;99748.63;5037151;28;20036;-75
2021/12/29 00:04:47;;;;;;;114.47;41.13;;;;;;;0.19;100.00;99744.22;5020673;28;20049;-75
2021/12/29 00:07:13;;;;;;;110.40;38.30;;;;;;;0.19;100.00;99741.59;5023065;28;20272;-76
2021/12/29 00:09:40;;;;;;;133.65;43.00;;;;;;;0.24;100.00;99754.38;5022128;28;20071;-76
2021/12/29 00:12:07;;;;;;;114.50;42.05;;;;;;;0.22;100.00;99753.66;5019675;28;20021;-76
2021/12/29 00:14:33;;;;;;;100.65;39.95;;;;;;;0.22;100.00;99764.16;5035814;28;20033;-75
2021/12/29 00:17:00;;;;;;;106.28;39.47;;;;;;;0.24;100.00;99765.69;5022369;28;20025;-75
2021/12/29 00:19:26;;;;;;;114.30;39.70;;;;;;;0.24;100.00;99773.56;5039692;28;20115;-75
2021/12/29 00:21:51;;;;;;;103.82;39.97;;;;;;;0.30;100.00;99788.00;5037038;28;20112;-76
2021/12/29 00:24:17;;;;;;;125.03;40.75;;;;;;;0.26;100.00;99776.06;5035421;28;20038;-76
2021/12/29 00:26:43;;;;;;;123.88;41.33;;;;;;;0.25;100.00;99779.66;5023741;28;20026;-76
2021/12/29 00:29:08;;;;;;;113.47;41.67;;;;;;;0.22;100.00;99799.09;5039369;28;20056;-76
2021/12/29 00:31:34;;;;;;;119.18;43.60;;;;;;;0.22;100.00;99800.91;5022863;28;20556;-76
2021/12/29 00:34:19;;;;;;;121.60;43.42;;;;;;;0.22;100.00;99812.22;5029885;28;20044;-76
2021/12/29 00:37:03;;;;;;;124.53;46.50;;;;;;;0.24;100.00;99817.38;5036339;28;20075;-75
2021/12/29 00:39:47;;;;;;;131.50;44.53;;;;;;;0.25;100.00;99821.66;5038443;28;20526;-75
2021/12/29 00:42:31;;;;;;;134.00;45.30;;;;;;;0.25;100.00;99830.34;5039224;28;20068;-76
2021/12/29 00:45:14;;;;;;;118.10;42.50;;;;;;;0.28;100.00;99839.78;5035720;28;20074;-76
2021/12/29 00:47:40;;;;;;;112.97;41.60;;;;;;;0.29;100.00;99842.31;5019454;28;20033;-76
2021/12/29 00:50:10;;;;;;;116.57;40.10;;;;;;;0.30;100.00;99857.09;5039221;28;20036;-75
2021/12/29 00:52:36;;;;;;;114.78;42.33;;;;;;;0.28;100.00;99864.28;5038673;28;20044;-76
2021/12/29 00:55:02;;;;;;;137.63;43.63;;;;;;;0.23;100.00;99861.16;5022318;28;20028;-76
2021/12/29 00:57:28;;;;;;;122.32;42.20;;;;;;;0.19;100.00;99864.97;5039238;28;20394;-76
2021/12/29 00:59:53;;;;;;;110.43;41.27;;;;;;;0.17;100.00;99867.72;5020145;28;20029;-76
2021/12/29 01:02:18;;;;;;;108.60;41.47;;;;;;;0.19;100.00;99870.22;5040778;28;20762;-76
2021/12/29 01:04:44;;;;;;;110.87;40.67;;;;;;;0.18;100.00;99868.53;5038466;28;20404;-76
2021/12/29 01:07:09;;;;;;;116.80;41.72;;;;;;;0.16;100.00;99871.31;5022280;28;20295;-78
2021/12/29 01:09:35;;;;;;;106.33;40.33;;;;;;;0.17;100.00;99877.38;5026282;28;20039;-76
2021/12/29 01:12:00;;;;;;;105.60;38.78;;;;;;;0.15;100.00;99880.13;5018872;28;20306;-76
2021/12/29 01:14:29;;;;;;;133.18;44.97;;;;;;;0.19;100.00;99891.22;5018391;28;20041;-76
2021/12/29 01:16:55;;;;;;;107.93;42.63;;;;;;;0.16;100.00;99896.69;5021325;28;20029;-76
2021/12/29 01:19:30;;;;;;;120.60;43.23;;;;;;;0.19;100.00;99912.22;5022839;28;20127;-76
2021/12/29 01:21:58;;;;;;;119.95;41.50;;;;;;;0.23;100.00;99911.03;5023110;28;20086;-76
2021/12/29 01:24:26;;;;;;;134.02;45.97;;;;;;;0.21;100.00;99918.19;5022441;28;20030;-75
2021/12/29 01:26:53;;;;;;;118.22;42.60;;;;;;;0.19;100.00;99920.09;5042587;28;20571;-75
2021/12/29 01:29:19;;;;;;;113.97;40.00;;;;;;;0.18;100.00;99928.91;5043566;28;20047;-76
2021/12/29 01:31:45;;;;;;;104.13;40.00;;;;;;;0.20;100.00;99934.91;5041558;28;20108;-78
2021/12/29 01:34:12;;;;;;;116.32;40.97;;;;;;;0.19;100.00;99947.19;5038512;28;20037;-76
2021/12/29 01:36:38;;;;;;;121.25;44.92;;;;;;;0.19;100.00;99959.50;5022453;28;20041;-76
2021/12/29 01:39:06;;;;;;;109.40;41.83;;;;;;;0.18;100.00;99952.53;5025801;28;20017;-76
2021/12/29 01:41:32;;;;;;;113.95;39.53;;;;;;;0.19;100.00;99967.38;5025590;28;20128;-77
2021/12/29 01:43:58;;;;;;;108.38;40.08;;;;;;;0.17;100.00;99971.88;5022568;28;20108;-75
2021/12/29 01:46:23;;;;;;;109.53;39.22;;;;;;;0.16;100.00;99970.19;5038645;28;20026;-76
2021/12/29 01:48:49;;;;;;;130.97;43.83;;;;;;;0.18;100.00;99970.91;5040137;28;20063;-75
2021/12/29 01:51:17;;;;;;;133.90;44.10;;;;;;;0.15;100.00;99969.38;5027189;28;20296;-75
2021/12/29 01:53:49;;;;;;;123.97;42.47;;;;;;;0.17;100.00;99990.25;5039347;28;20042;-75
2021/12/29 01:56:15;;;;;;;132.13;42.65;;;;;;;0.15;100.00;99982.50;5036559;28;20034;-77
2021/12/29 01:58:41;;;;;;;123.53;42.92;;;;;;;0.19;100.00;99991.00;5038140;28;20072;-76
2021/12/29 02:01:07;;;;;;;120.22;43.67;;;;;;;0.18;100.00;99997.16;5042497;28;20159;-76
2021/12/29 02:03:32;;;;;;;118.32;42.15;;;;;;;0.20;100.00;99995.28;5041082;28;20475;-76
2021/12/29 02:05:58;;;;;;;167.45;46.42;;;;;;;0.20;100.00;99997.91;5037715;28;20033;-76
2021/12/29 02:08:24;;;;;;;109.35;41.78;;;;;;;0.16;100.00;99997.31;5037333;28;20018;-75
2021/12/29 02:10:53;;;;;;;;;;;;;;;0.18;100.00;99997.16;5039059;28;20041;-76
2021/12/29 02:13:19;;;;;;;117.10;41.47;;;;;;;0.14;100.00;99999.22;5040082;28;19944;-75
2021/12/29 02:15:45;;;;;;;120.10;41.65;;;;;;;0.12;100.00;100002.91;5021906;28;20087;-77
2021/12/29 02:18:15;;;;;;;124.13;43.60;;;;;;;0.13;100.00;100017.69;5037779;28;20510;-75
2021/12/29 02:20:44;;;;;;;137.38;45.22;;;;;;;0.16;100.00;100034.06;5011779;28;20119;-76
2021/12/29 02:23:15;;;;;;;122.80;43.67;;;;;;;0.17;100.00;100027.84;5043019;28;20082;-75
2021/12/29 02:25:55;;;;;;;124.60;43.25;;;;;;;0.17;100.00;100034.88;5036867;28;20045;-75
2021/12/29 02:28:33;;;;;;;129.95;44.83;;;;;;;0.22;100.00;100052.94;5023340;28;20036;-75
2021/12/29 02:30:59;;;;;;;137.38;43.72;;;;;;;0.20;100.00;100060.91;5037091;28;20030;-75
2021/12/29 02:33:25;;;;;;;;;;;;;;;0.23;100.00;100072.97;5020208;28;20078;-75
2021/12/29 02:35:50;;;;;;;135.48;43.38;;;;;;;0.19;100.00;100059.25;5021455;28;20068;-75
2021/12/29 02:38:43;;;;;;;119.22;43.90;;;;;;;0.18;100.00;100060.19;5039377;28;20044;-75
2021/12/29 02:41:09;;;;;;;136.52;46.60;;;;;;;0.12;100.00;100053.59;5012764;28;20178;-76
2021/12/29 02:43:37;;;;;;;124.33;45.63;;;;;;;0.19;100.00;100054.00;5037411;28;20107;-75
2021/12/29 02:46:11;;;;;;;127.82;43.30;;;;;;;0.19;100.00;100067.13;5011580;28;20280;-75
2021/12/29 02:48:38;;;;;;;144.88;45.58;;;;;;;0.13;100.00;100060.50;5019597;28;20025;-75
2021/12/29 02:51:07;;;;;;;144.40;43.70;;;;;;;0.19;100.00;100082.88;5046663;28;20136;-75
2021/12/29 02:53:33;;;;;;;158.38;48.38;;;;;;;0.21;100.00;100094.06;5039499;28;20033;-76
2021/12/29 02:55:58;;;;;;;172.27;51.08;;;;;;;0.23;100.00;100094.81;5032413;28;20559;-75
2021/12/29 02:58:24;;;;;;;154.45;45.47;;;;;;;0.22;100.00;100097.56;5023003;28;20045;-74
2021/12/29 03:00:51;;;;;;;184.65;48.83;;;;;;;0.21;100.00;100101.94;5037405;28;20021;-75
2021/12/29 03:03:19;;;;;;;184.80;51.17;;;;;;;0.16;100.00;100104.94;5035485;28;20037;-74
2021/12/29 03:05:45;;;;;;;165.70;49.70;;;;;;;0.17;100.00;100118.91;5020107;28;20041;-75
2021/12/29 03:08:15;;;;;;;233.68;58.28;;;;;;;0.17;100.00;100129.41;5022707;28;20031;-75
2021/12/29 03:10:42;;;;;;;168.35;48.10;;;;;;;0.11;100.00;100119.31;5039514;28;20041;-75
2021/12/29 03:13:08;;;;;;;263.15;59.33;;;;;;;0.04;100.00;100113.69;5035254;28;20037;-75
2021/12/29 03:15:34;;;;;;;237.55;59.63;;;;;;;0.04;100.00;100134.69;5018652;28;20074;-76
2021/12/29 03:18:00;;;;;;;200.55;51.30;;;;;;;0.03;100.00;100154.00;5022063;28;20037;-74
2021/12/29 03:20:27;;;;;;;180.93;47.57;;;;;;;0.03;100.00;100169.75;5039101;28;20548;-75
2021/12/29 03:22:55;;;;;;;201.40;57.25;;;;;;;0.06;100.00;100184.44;5019571;28;20070;-75
2021/12/29 03:25:22;;;;;;;217.88;56.55;;;;;;;0.09;100.00;100190.31;5036285;28;20040;-75
2021/12/29 03:27:48;;;;;;;216.82;55.38;;;;;;;0.10;100.00;100196.41;5038007;28;20048;-75
2021/12/29 03:30:13;;;;;;;205.32;54.05;;;;;;;0.08;100.00;100206.19;5042282;28;20849;-75
2021/12/29 03:32:49;;;;;;;175.70;49.05;;;;;;;0.10;100.00;100213.00;5019063;28;20040;-75
2021/12/29 03:35:15;;;;;;;;;;;;;;;0.12;100.00;100223.41;5022131;28;20090;-76
2021/12/29 03:37:40;;;;;;;189.93;52.17;;;;;;;0.16;100.00;100235.34;5030368;28;19913;-75
2021/12/29 03:40:06;;;;;;;206.00;53.17;;;;;;;0.12;100.00;100232.09;5038520;28;20122;-75
2021/12/29 03:42:32;;;;;;;174.50;50.72;;;;;;;0.13;100.00;100240.81;5038324;28;20044;-75
2021/12/29 03:44:58;;;;;;;178.52;49.83;;;;;;;0.12;100.00;100254.91;5036505;28;20063;-75
2021/12/29 03:47:23;;;;;;;168.23;48.03;;;;;;;0.12;100.00;100262.78;5035109;28;20032;-75
2021/12/29 03:49:49;;;;;;;175.77;49.03;;;;;;;0.12;100.00;100268.84;5038107;28;20072;-75
2021/12/29 03:52:14;;;;;;;159.90;46.23;;;;;;;0.15;100.00;100279.13;5021614;28;20032;-75
2021/12/29 03:54:39;;;;;;;271.73;55.97;;;;;;;0.10;100.00;100281.25;5013442;28;20280;-77
2021/12/29 03:57:05;;;;;;;184.23;52.50;;;;;;;0.09;100.00;100278.72;5043299;28;20116;-75
2021/12/29 03:59:30;;;;;;;218.03;52.97;;;;;;;0.08;100.00;100284.94;5034616;28;20288;-74
2021/12/29 04:01:55;;;;;;;181.87;50.67;;;;;;;0.13;100.00;100295.94;5037447;28;20076;-76
2021/12/29 04:04:22;;;;;;;194.73;51.90;;;;;;;0.16;100.00;100306.22;5037933;28;20529;-75
2021/12/29 04:06:48;;;;;;;192.73;48.40;;;;;;;0.13;100.00;100301.19;5037660;28;20441;-76
2021/12/29 04:09:13;;;;;;;;;;;;;;;0.17;100.00;100302.66;5041154;28;20045;-75
2021/12/29 04:11:39;;;;;;;166.60;47.67;;;;;;;0.15;100.00;100315.88;5034600;28;19970;-77
2021/12/29 04:14:04;;;;;;;233.80;56.07;;;;;;;0.10;100.00;100314.53;5037694;28;20045;-76
2021/12/29 04:16:30;;;;;;;277.33;58.70;;;;;;;0.09;100.00;100321.56;5021406;28;20510;-76
2021/12/29 04:19:06;;;;;;;176.90;47.63;;;;;;;0.06;100.00;100326.19;5035235;28;20040;-75
2021/12/29 04:21:36;;;;;;;166.63;46.53;;;;;;;0.05;100.00;100325.34;5034218;28;20041;-75
2021/12/29 04:24:01;;;;;;;154.32;44.78;;;;;;;0.07;100.00;100351.47;5025853;28;20063;-75
2021/12/29 04:26:26;;;;;;;161.70;46.73;;;;;;;0.19;100.00;100384.78;5017627;28;20033;-75
2021/12/29 04:28:52;;;;;;;172.17;44.00;;;;;;;0.16;100.00;100370.09;5036494;28;20049;-75
2021/12/29 04:31:17;;;;;;;293.70;57.93;;;;;;;0.04;100.00;100347.28;5021427;28;20036;-75
2021/12/29 04:33:42;;;;;;;177.97;46.83;;;;;;;-0.01;100.00;100341.50;5019788;28;20282;-75
2021/12/29 04:36:08;;;;;;;164.50;45.90;;;;;;;0.01;100.00;100344.03;5034095;28;20206;-75
2021/12/29 04:38:34;;;;;;;163.17;45.43;;;;;;;0.03;100.00;100347.41;5017629;28;20045;-75
2021/12/29 04:40:59;;;;;;;;;;;;;;;0.05;100.00;100358.63;5021410;28;20626;-75
2021/12/29 04:43:26;;;;;;;184.63;50.15;;;;;;;0.07;100.00;100364.59;5044385;28;20038;-75
2021/12/29 04:45:52;;;;;;;164.32;49.60;;;;;;;0.06;100.00;100373.44;5043195;28;20037;-76
2021/12/29 04:48:18;;;;;;;176.50;46.42;;;;;;;0.05;100.00;100390.13;5017783;28;20044;-75
2021/12/29 04:50:51;;;;;;;175.88;46.55;;;;;;;0.07;100.00;100396.09;5035056;28;20675;-76
2021/12/29 04:53:18;;;;;;;194.90;48.80;;;;;;;0.05;100.00;100390.13;5020931;28;20278;-75
2021/12/29 04:55:45;;;;;;;195.40;50.15;;;;;;;0.03;100.00;100389.41;5036310;28;20025;-75
2021/12/29 04:58:11;;;;;;;179.43;48.88;;;;;;;0.02;100.00;100392.94;5040736;28;20187;-75
2021/12/29 05:00:37;;;;;;;155.82;43.38;;;;;;;-0.01;100.00;100402.72;5034627;28;20049;-75
2021/12/29 05:03:04;;;;;;;172.52;47.05;;;;;;;0.01;100.00;100412.28;5038916;28;20037;-75
2021/12/29 05:10:45;;;;;;;168.80;46.83;;;;;;;0.02;100.00;100427.06;5034781;28;20029;-76
2021/12/29 05:13:10;;;;;;;;;;;;;;;0.09;100.00;100451.97;5037460;28;20599;-75
2021/12/29 05:15:36;;;;;;;142.02;41.33;;;;;;;0.06;100.00;100454.81;5019183;28;19992;-76
2021/12/29 05:18:02;;;;;;;260.70;59.27;;;;;;;0.07;100.00;100453.84;5045443;28;20044;-76
2021/12/29 05:20:28;;;;;;;;;;;;;;;0.04;100.00;100454.06;5044751;28;20283;-75
2021/12/29 05:22:55;;;;;;;196.93;51.55;;;;;;;-0.01;100.00;100457.00;5041549;28;19909;-76
2021/12/29 05:25:20;;;;;;;230.32;50.83;;;;;;;-0.03;100.00;100448.38;5033379;28;20128;-75
2021/12/29 05:27:45;;;;;;;200.38;50.33;;;;;;;-0.10;100.00;100447.94;5018351;28;20120;-75
2021/12/29 05:30:11;;;;;;;150.83;42.20;;;;;;;-0.09;100.00;100457.50;5036613;28;20044;-75
2021/12/29 05:32:36;;;;;;;166.55;47.25;;;;;;;-0.04;100.00;100483.44;5036906;28;20063;-75
2021/12/29 05:35:02;;;;;;;300.08;57.95;;;;;;;-0.06;100.00;100472.22;5016889;28;20103;-75
2021/12/29 05:37:28;;;;;;;156.02;45.10;;;;;;;-0.08;100.00;100474.94;5033637;28;20099;-75
2021/12/29 05:39:53;;;;;;;163.38;45.67;;;;;;;-0.07;100.00;100468.75;5037229;28;20766;-75
2021/12/29 05:42:18;;;;;;;164.13;49.37;;;;;;;-0.03;100.00;100490.38;5020484;28;20053;-76
2021/12/29 05:44:44;;;;;;;194.18;57.38;;;;;;;0.04;100.00;100498.69;5035873;28;20025;-76
2021/12/29 05:47:09;;;;;;;220.35;52.08;;;;;;;0.02;100.00;100496.16;5016892;28;20122;-76
2021/12/29 05:49:35;;;;;;;298.70;56.60;;;;;;;-0.04;100.00;100475.59;5016873;28;20044;-76
2021/12/29 05:52:00;;;;;;;217.30;55.50;;;;;;;0.02;100.00;100495.31;5016801;28;20036;-75
2021/12/29 05:54:27;;;;;;;203.63;52.75;;;;;;;0.04;100.00;100501.31;5013306;28;20293;-76
2021/12/29 05:56:53;;;;;;;180.85;53.13;;;;;;;0.12;100.00;100523.50;5043425;28;20041;-75
2021/12/29 05:59:19;;;;;;;223.10;57.63;;;;;;;0.11;100.00;100510.47;5037691;28;20131;-75
2021/12/29 06:01:44;;;;;;;177.05;52.53;;;;;;;0.08;100.00;100513.31;5023772;28;20053;-77
2021/12/29 06:04:10;;;;;;;184.57;54.88;;;;;;;0.11;100.00;100519.19;5012757;28;20028;-76
2021/12/29 06:06:35;;;;;;;;;;;;;;;0.12;100.00;100525.28;5038254;28;20044;-75
2021/12/29 06:09:01;;;;;;;287.77;68.15;;;;;;;0.10;100.00;100519.28;5029994;28;19913;-75
2021/12/29 06:11:27;;;;;;;218.50;60.80;;;;;;;0.06;100.00;100516.03;5036878;28;20095;-75
2021/12/29 06:13:52;;;;;;;202.90;57.43;;;;;;;0.06;100.00;100516.03;5045316;28;20483;-76
2021/12/29 06:16:17;;;;;;;167.47;52.67;;;;;;;0.05;100.00;100516.97;5041791;28;20479;-75
2021/12/29 06:18:43;;;;;;;243.93;61.60;;;;;;;0.04;100.00;100511.81;5038954;28;20567;-75
2021/12/29 06:21:08;;;;;;;232.97;57.53;;;;;;;0.01;100.00;100517.28;5020059;28;21117;-76
2021/12/29 06:23:33;;;;;;;170.37;50.43;;;;;;;0.02;100.00;100524.19;5035863;28;20044;-77
2021/12/29 06:25:59;;;;;;;200.30;53.50;;;;;;;0.03;100.00;100525.91;5023091;28;20037;-77
2021/12/29 06:28:24;;;;;;;199.40;59.40;;;;;;;-0.01;100.00;100526.06;5039888;28;20033;-77
2021/12/29 06:30:49;;;;;;;214.20;55.92;;;;;;;0.03;100.00;100536.41;5029732;28;20041;-76
2021/12/29 06:33:15;;;;;;;218.17;56.37;;;;;;;0.03;100.00;100539.03;5042857;28;20037;-75
2021/12/29 06:35:40;;;;;;;181.33;53.23;;;;;;;0.04;100.00;100548.56;5035951;28;20392;-75
2021/12/29 06:38:06;;;;;;;193.30;56.00;;;;;;;0.00;100.00;100555.81;5022901;28;20292;-75
2021/12/29 06:40:31;;;;;;;218.13;59.20;;;;;;;0.03;100.00;100566.09;5022828;28;20037;-75
2021/12/29 06:42:56;;;;;;;192.82;55.33;;;;;;;0.06;100.00;100572.94;5020266;28;20307;-75
2021/12/29 06:45:22;;;;;;;230.20;56.55;;;;;;;0.07;100.00;100574.59;5035886;28;20057;-75
2021/12/29 06:47:47;;;;;;;177.80;50.97;;;;;;;0.08;100.00;100576.31;5037871;28;20057;-76
2021/12/29 06:50:12;;;;;;;180.90;51.13;;;;;;;0.08;100.00;100581.56;5022774;28;20090;-75
2021/12/29 06:52:38;;;;;;;148.93;48.10;;;;;;;0.10;100.00;100588.38;5039026;28;20067;-76
2021/12/29 06:55:04;;;;;;;185.17;52.33;;;;;;;0.09;100.00;100585.84;5019168;28;20033;-75
2021/12/29 06:57:29;;;;;;;185.15;55.10;;;;;;;0.09;100.00;100585.84;5018664;28;21040;-76
2021/12/29 06:59:55;;;;;;;184.03;55.73;;;;;;;0.11;100.00;100597.09;5021368;28;20029;-76
2021/12/29 07:02:21;;;;;;;183.55;54.17;;;;;;;0.09;100.00;100598.97;5022340;28;20048;-75
2021/12/29 07:04:46;;;;;;;192.45;53.33;;;;;;;0.06;100.00;100607.91;5036405;28;20036;-76
2021/12/29 07:07:11;;;;;;;193.30;52.88;;;;;;;0.16;100.00;100639.66;5035208;28;20381;-75
2021/12/29 07:09:37;;;;;;;180.25;53.15;;;;;;;0.14;100.00;100629.25;5036458;28;20092;-75
2021/12/29 07:12:03;;;;;;;244.93;63.70;;;;;;;0.08;100.00;100618.31;5022200;28;20029;-75
2021/12/29 07:14:28;;;;;;;170.20;53.85;;;;;;;0.03;100.00;100604.63;5022411;28;20048;-75
2021/12/29 07:16:53;;;;;;;178.70;54.58;;;;;;;0.02;100.00;100610.81;5020937;28;20152;-75
2021/12/29 07:19:20;;;;;;;171.05;50.58;;;;;;;0.06;100.00;100623.66;5038809;28;20029;-76
2021/12/29 07:21:45;;;;;;;;;;;;;;;0.08;100.00;100613.91;5038956;28;20032;-75
2021/12/29 07:24:11;;;;;;;152.00;48.20;;;;;;;0.07;100.00;100621.84;5034726;28;19939;-75
2021/12/29 07:26:36;;;;;;;157.10;47.42;;;;;;;0.05;100.00;100619.34;5034633;28;20053;-75
2021/12/29 07:29:03;;;;;;;228.77;58.67;;;;;;;0.03;100.00;100615.16;5037528;28;20398;-75
2021/12/29 07:31:30;;;;;;;194.15;55.40;;;;;;;-0.01;100.00;100614.47;5021116;28;20190;-75
2021/12/29 07:33:56;;;;;;;175.45;51.50;;;;;;;0.02;100.00;100637.06;5033432;28;20017;-75
2021/12/29 07:36:21;;;;;;;157.80;50.28;;;;;;;0.03;100.00;100636.13;5033519;28;20112;-76
2021/12/29 07:38:47;;;;;;;179.00;55.90;;;;;;;0.11;100.00;100652.22;5018119;28;20099;-76
2021/12/29 07:41:13;;;;;;;189.70;54.20;;;;;;;0.29;100.00;100679.09;5019702;28;20033;-75
2021/12/29 07:43:39;;;;;;;204.43;57.88;;;;;;;0.15;100.00;100645.84;5036287;28;20115;-74
2021/12/29 07:46:05;;;;;;;219.07;60.70;;;;;;;0.04;100.00;100622.91;5033207;28;20419;-75
2021/12/29 07:48:32;;;;;;;147.85;45.80;;;;;;;0.02;100.00;100619.53;5036265;28;20080;-75
2021/12/29 07:51:00;;;;;;;182.57;54.95;;;;;;;0.05;100.00;100626.34;5037703;28;20025;-75
2021/12/29 07:53:25;;;;;;;163.18;51.45;;;;;;;0.06;100.00;100646.44;5068427;23;20053;-78
2021/12/29 07:55:51;;;;;;;189.50;57.40;;;;;;;0.07;100.00;100648.97;4991435;28;20033;-82
2021/12/29 07:58:17;;;;;;;196.00;54.83;;;;;;;0.05;100.00;100647.34;4989996;28;20066;-80
2021/12/29 08:00:44;;;;;;;155.05;53.80;;;;;;;0.06;100.00;100651.69;5023313;28;20034;-81
2021/12/29 08:03:13;;;;;;;156.55;50.80;;;;;;;0.13;100.00;100668.72;4990590;28;20033;-82
2021/12/29 08:05:40;;;;;;;164.20;49.00;;;;;;;0.15;100.00;100672.09;5009919;28;20041;-80
2021/12/29 08:08:06;;;;;;;;;;;;;;;0.23;100.00;100690.00;5009469;28;20033;-80
2021/12/29 08:10:38;;;;;;;132.57;45.58;;;;;;;0.26;100.00;100688.03;4993101;28;19909;-81
2021/12/29 08:13:05;;;;;;;155.27;52.58;;;;;;;0.23;100.00;100680.31;4984828;28;20911;-79
2021/12/29 08:15:32;;;;;;;152.63;50.80;;;;;;;0.26;100.00;100680.16;5010335;28;20034;-81
2021/12/29 08:17:58;;;;;;;134.45;46.78;;;;;;;0.18;100.00;100677.16;4994014;28;20021;-81
2021/12/29 08:20:24;;;;;;;148.40;49.47;;;;;;;0.24;100.00;100708.28;4994608;28;20030;-80
2021/12/29 08:22:51;;;;;;;144.10;50.22;;;;;;;0.26;100.00;100710.78;5009960;28;20068;-79
2021/12/29 08:25:17;;;;;;;145.07;47.95;;;;;;;0.28;100.00;100719.44;4992683;28;20033;-80
2021/12/29 08:27:42;;;;;;;216.48;56.72;;;;;;;0.28;100.00;100712.41;4993613;28;20037;-81
2021/12/29 08:30:09;;;;;;;161.75;48.88;;;;;;;0.28;100.00;100720.28;5009054;28;20036;-81
2021/12/29 08:32:34;;;;;;;136.32;45.33;;;;;;;0.33;100.00;100733.97;5009802;28;20083;-79
2021/12/29 08:34:59;;;;;;;173.23;51.80;;;;;;;0.35;100.00;100732.09;4992617;28;20041;-79
2021/12/29 08:37:25;;;;;;;142.63;48.97;;;;;;;0.38;100.00;100739.75;5011648;28;20064;-80
2021/12/29 08:39:50;;;;;;;133.90;46.08;;;;;;;0.41;100.00;100733.47;5009610;28;20042;-81
2021/12/29 08:42:15;;;;;;;179.53;49.87;;;;;;;0.44;100.00;100732.44;4992539;28;20044;-81
2021/12/29 08:44:41;;;;;;;155.90;50.85;;;;;;;0.38;100.00;100725.78;5009102;28;20045;-79
2021/12/29 08:47:08;;;;;;;144.70;47.38;;;;;;;0.32;100.00;100711.25;4992937;28;20491;-80
2021/12/29 08:49:35;;;;;;;146.80;49.75;;;;;;;0.41;100.00;100725.59;4989922;28;20050;-80
2021/12/29 08:52:00;;;;;;;139.23;48.93;;;;;;;0.52;100.00;100738.06;4992917;28;20065;-80
2021/12/29 08:54:27;;;;;;;152.80;49.60;;;;;;;0.53;100.00;100729.22;5008672;28;20393;-81
2021/12/29 08:56:54;;;;;;;;;;;;;;;0.57;100.00;100725.47;4994155;28;20068;-81
2021/12/29 08:59:20;;;;;;;174.80;52.92;;;;;;;0.61;100.00;100730.41;4993346;28;20346;-81
2021/12/29 09:01:46;;;;;;;171.32;50.35;;;;;;;0.58;100.00;100714.84;5009575;28;20080;-80
2021/12/29 09:04:11;;;;;;;164.02;48.58;;;;;;;0.55;100.00;100695.81;5009423;28;20050;-81
2021/12/29 09:06:36;;;;;;;164.57;53.20;;;;;;;0.57;100.00;100699.19;4989753;28;20022;-80
2021/12/29 09:09:03;;;;;;;151.80;49.33;;;;;;;0.71;100.00;100714.06;4985371;28;20034;-80
2021/12/29 09:11:30;;;;;;;164.23;47.42;;;;;;;0.71;100.00;100714.91;4992926;28;20113;-80
2021/12/29 09:13:56;;;;;;;159.50;49.78;;;;;;;0.77;100.00;100713.66;5009655;28;20042;-81
2021/12/29 09:16:22;;;;;;;156.63;48.88;;;;;;;0.74;100.00;100701.53;4993756;28;20029;-81
2021/12/29 09:18:47;;;;;;;166.55;47.83;;;;;;;0.73;100.00;100684.09;5009928;28;20030;-81
2021/12/29 09:21:15;;;;;;;152.13;50.05;;;;;;;0.78;100.00;100684.66;5010543;28;20033;-80
2021/12/29 09:23:43;;;;;;;161.75;48.95;;;;;;;0.96;100.00;100694.88;4992915;28;20132;-80
2021/12/29 09:26:11;;;;;;;177.07;51.72;;;;;;;1.00;100.00;100699.00;4993693;28;20553;-80
2021/12/29 09:28:36;;;;;;;152.13;45.63;;;;;;;1.02;100.00;100686.59;4994009;28;20065;-80
2021/12/29 09:31:02;;;;;;;153.55;48.95;;;;;;;1.05;100.00;100670.59;5012080;28;20049;-80
2021/12/29 09:33:28;;;;;;;131.95;45.30;;;;;;;1.10;100.00;100658.00;4994531;28;20052;-80
2021/12/29 09:36:01;;;;;;;170.82;51.22;;;;;;;1.21;100.00;100665.97;4994008;28;20025;-81
2021/12/29 09:38:28;;;;;;;144.55;42.97;;;;;;;1.27;100.00;100662.13;4994097;28;20444;-81
2021/12/29 09:40:54;;;;;;;144.60;45.38;;;;;;;1.33;100.00;100658.22;4995057;28;20531;-81
2021/12/29 09:43:23;;;;;;;132.70;42.35;;;;;;;1.33;100.00;100648.53;4996143;28;20049;-79
2021/12/29 09:45:49;;;;;;;143.98;44.50;;;;;;;1.40;100.00;100641.88;4996326;28;20793;-80
2021/12/29 09:48:15;;;;;;;139.15;44.70;;;;;;;1.41;100.00;100624.34;4992571;28;20041;-79
2021/12/29 09:50:42;;;;;;;143.25;45.13;;;;;;;1.19;100.00;100564.47;4993901;28;20026;-80
2021/12/29 09:53:08;;;;;;;140.15;42.65;;;;;;;1.39;100.00;100573.63;5012331;28;20045;-80
2021/12/29 09:55:35;;;;;;;154.80;44.35;;;;;;;1.46;100.00;100562.53;5015717;28;20105;-81
2021/12/29 09:58:03;;;;;;;150.48;46.08;;;;;;;1.47;100.00;100543.19;5016660;28;20446;-80
2021/12/29 10:00:30;;;;;;;152.70;44.85;;;;;;;1.43;100.00;100517.22;4999242;28;20558;-81
2021/12/29 10:02:58;;;;;;;148.52;46.67;;;;;;;1.40;100.00;100493.72;4994645;28;20044;-81
2021/12/29 10:05:27;;;;;;;147.98;44.08;;;;;;;1.39;100.00;100471.03;4997310;28;20028;-81
2021/12/29 10:07:57;;;;;;;129.45;39.80;;;;;;;1.50;100.00;100476.34;4997716;28;20553;-80
2021/12/29 10:10:23;;;;;;;136.25;43.70;;;;;;;1.63;100.00;100485.03;4998029;28;20479;-81
2021/12/29 10:12:49;;;;;;;;;;;;;;;1.78;100.00;100487.47;4998566;28;20076;-80
2021/12/29 10:15:14;;;;;;;124.22;43.45;;;;;;;1.71;100.00;100454.66;4997235;28;20379;-81
2021/12/29 10:17:40;;;;;;;138.20;44.38;;;;;;;1.67;100.00;100428.59;5014984;28;20022;-80
2021/12/29 10:20:12;;;;;;;138.85;44.78;;;;;;;1.70;100.00;100411.72;5013762;28;20647;-81
2021/12/29 10:22:38;;;;;;;144.48;44.83;;;;;;;1.78;100.00;100405.88;5014242;28;20034;-82
2021/12/29 10:25:11;;;;;;;140.05;43.25;;;;;;;1.90;100.00;100402.34;4998098;28;20041;-81
2021/12/29 10:27:37;;;;;;;132.18;42.03;;;;;;;2.01;100.00;100393.63;4998438;28;20037;-81
2021/12/29 10:30:23;;;;;;;124.88;40.83;;;;;;;2.01;100.00;100378.66;4998037;28;20030;-82
2021/12/29 10:32:49;;;;;;;119.93;42.88;;;;;;;2.04;100.00;100361.81;4997511;28;20034;-81
2021/12/29 10:35:29;;;;;;;134.48;42.15;;;;;;;2.04;100.00;100365.28;5013538;28;20049;-81
2021/12/29 10:38:12;;;;;;;127.82;43.03;;;;;;;2.02;100.00;100346.13;5014070;28;20041;-81
2021/12/29 10:40:38;;;;;;;119.95;40.75;;;;;;;2.05;100.00;100327.44;5014554;28;20061;-81
2021/12/29 10:43:03;;;;;;;121.32;40.25;;;;;;;2.07;100.00;100315.00;4994417;28;20565;-81
2021/12/29 10:45:35;;;;;;;133.20;42.25;;;;;;;2.09;100.00;100299.94;4993465;28;20491;-81
2021/12/29 10:48:02;;;;;;;131.23;42.67;;;;;;;1.87;100.00;100260.41;4997683;28;20033;-81
2021/12/29 10:50:28;;;;;;;132.48;41.80;;;;;;;1.91;100.00;100272.38;5013862;28;20025;-80
2021/12/29 10:52:57;;;;;;;136.05;45.15;;;;;;;1.95;100.00;100265.09;4995588;28;20041;-80
2021/12/29 10:55:35;;;;;;;138.73;42.75;;;;;;;1.76;100.00;100237.56;5012157;28;20116;-80
2021/12/29 10:58:10;;;;;;;137.75;43.42;;;;;;;1.59;100.00;100209.94;5012065;28;20764;-80
2021/12/29 11:00:39;;;;;;;142.82;45.78;;;;;;;1.67;100.00;100225.94;5012773;28;20030;-80
2021/12/29 11:03:08;;;;;;;128.45;44.08;;;;;;;1.68;100.00;100219.72;4996765;28;20038;-80
2021/12/29 11:05:40;;;;;;;141.25;44.33;;;;;;;1.69;100.00;100221.41;4996083;28;20117;-81
2021/12/29 11:08:08;;;;;;;142.10;46.83;;;;;;;1.79;100.00;100233.84;4989149;28;20040;-80
2021/12/29 11:10:34;;;;;;;136.65;43.03;;;;;;;1.93;100.00;100252.06;4996310;28;20069;-79
2021/12/29 11:12:59;;;;;;;125.57;44.10;;;;;;;1.89;100.00;100240.91;4995305;28;20429;-80